sensor_id;sensor_type;location;lat;lon;timestamp;P1;P2;P0
74434;PMS7003;62867;52.038;29.256;2023-06-22T00:02:46;0.6;0.6;0.6
74434;PMS7003;62867;52.038;29.256;2023-06-22T00:07:46;1.8;1.8;1.3
74434;PMS7003;62867;52.038;29.256;2023-06-22T00:12:10;0.8;0.8;0.4
74434;PMS7003;62867;52.038;29.256;2023-06-22T00:17:00;1.2;1.2;0.6
74434;PMS7003;62867;52.038;29.256;2023-06-22T00:22:44;1.2;1.2;1.2
74434;PMS7003;62867;52.038;29.256;2023-06-22T00:27:30;1.2;1.2;1
74434;PMS7003;62867;52.038;29.256;2023-06-22T00:32:18;0.6;0.6;0.4
74434;PMS7003;62867;52.038;29.256;2023-06-22T00:37:00;1;0.6;0.4
74434;PMS7003;62867;52.038;29.256;2023-06-22T00:41:58;1.4;1;0.8
74434;PMS7003;62867;52.038;29.256;2023-06-22T00:46:50;1.2;1;1
74434;PMS7003;62867;52.038;29.256;2023-06-22T00:52:08;0.6;0.6;0.4
74434;PMS7003;62867;52.038;29.256;2023-06-22T00:57:46;1.6;1.6;1
74434;PMS7003;62867;52.038;29.256;2023-06-22T01:02:30;1;0.8;0.6
74434;PMS7003;62867;52.038;29.256;2023-06-22T01:07:45;0.8;0.8;0.8
74434;PMS7003;62867;52.038;29.256;2023-06-22T01:12:12;1.8;1.4;1
74434;PMS7003;62867;52.038;29.256;2023-06-22T01:16:58;1;1;0.8
74434;PMS7003;62867;52.038;29.256;2023-06-22T01:21:50;0.8;0.8;0.4
74434;PMS7003;62867;52.038;29.256;2023-06-22T01:27:15;1.6;1.6;1.2
74434;PMS7003;62867;52.038;29.256;2023-06-22T01:32:18;1.4;1.2;1
74434;PMS7003;62867;52.038;29.256;2023-06-22T01:37:34;1.4;1.4;0.8
74434;PMS7003;62867;52.038;29.256;2023-06-22T01:42:46;1.8;1.8;1
74434;PMS7003;62867;52.038;29.256;2023-06-22T01:47:16;1.8;1.8;1.2
74434;PMS7003;62867;52.038;29.256;2023-06-22T01:51:50;1.8;1.8;1.4
74434;PMS7003;62867;52.038;29.256;2023-06-22T01:57:48;2;1.6;1
74434;PMS7003;62867;52.038;29.256;2023-06-22T02:02:33;1.4;1.4;1
74434;PMS7003;62867;52.038;29.256;2023-06-22T02:07:20;1.3;1.3;1
74434;PMS7003;62867;52.038;29.256;2023-06-22T02:12:36;1.8;1.8;1
74434;PMS7003;62867;52.038;29.256;2023-06-22T02:17:36;1.4;1.4;1
74434;PMS7003;62867;52.038;29.256;2023-06-22T02:22:28;1.4;1.2;1
74434;PMS7003;62867;52.038;29.256;2023-06-22T02:27:34;1.8;1;1
74434;PMS7003;62867;52.038;29.256;2023-06-22T02:32:46;1.4;1.2;0.8
74434;PMS7003;62867;52.038;29.256;2023-06-22T02:37:48;1.8;1.4;1
74434;PMS7003;62867;52.038;29.256;2023-06-22T02:42:32;1.8;1;0.8
74434;PMS7003;62867;52.038;29.256;2023-06-22T02:47:26;1.2;1.2;0.8
74434;PMS7003;62867;52.038;29.256;2023-06-22T02:52:48;1.8;1.8;1.2
74434;PMS7003;62867;52.038;29.256;2023-06-22T02:57:02;1.4;1.4;0.6
74434;PMS7003;62867;52.038;29.256;2023-06-22T03:02:02;1.8;1.4;1.2
74434;PMS7003;62867;52.038;29.256;2023-06-22T03:07:28;1.5;1.5;1.5
74434;PMS7003;62867;52.038;29.256;2023-06-22T03:12:36;1.2;1;1
74434;PMS7003;62867;52.038;29.256;2023-06-22T03:17:48;1.8;1.4;1
74434;PMS7003;62867;52.038;29.256;2023-06-22T03:22:28;1.2;1.2;0.8
74434;PMS7003;62867;52.038;29.256;2023-06-22T03:27:48;2;2;1.4
74434;PMS7003;62867;52.038;29.256;2023-06-22T03:32:02;1.6;1.6;1.2
74434;PMS7003;62867;52.038;29.256;2023-06-22T03:37:48;1.4;1.4;1.2
74434;PMS7003;62867;52.038;29.256;2023-06-22T03:42:28;1.2;1.2;1
74434;PMS7003;62867;52.038;29.256;2023-06-22T03:47:10;1.2;1.2;0.8
74434;PMS7003;62867;52.038;29.256;2023-06-22T03:52:30;1.2;1.2;1.2
74434;PMS7003;62867;52.038;29.256;2023-06-22T03:57:26;1.2;1.2;1
74434;PMS7003;62867;52.038;29.256;2023-06-22T04:01:50;2;1.8;1.2
74434;PMS7003;62867;52.038;29.256;2023-06-22T04:07:34;2;1.8;1.3
74434;PMS7003;62867;52.038;29.256;2023-06-22T04:12:48;1.8;1.8;1
74434;PMS7003;62867;52.038;29.256;2023-06-22T04:17:10;1.4;1.4;1.2
74434;PMS7003;62867;52.038;29.256;2023-06-22T04:22:48;1.4;1.4;1
74434;PMS7003;62867;52.038;29.256;2023-06-22T04:27:44;1.8;1.6;1.4
74434;PMS7003;62867;52.038;29.256;2023-06-22T04:32:28;1.2;1.2;1
74434;PMS7003;62867;52.038;29.256;2023-06-22T04:37:00;1.4;1.4;1.2
74434;PMS7003;62867;52.038;29.256;2023-06-22T04:42:18;1.2;1;0.6
74434;PMS7003;62867;52.038;29.256;2023-06-22T04:47:48;1.8;1.8;1.4
74434;PMS7003;62867;52.038;29.256;2023-06-22T04:52:32;1.6;1.4;1
74434;PMS7003;62867;52.038;29.256;2023-06-22T04:57:18;1.8;1.6;1.2
74434;PMS7003;62867;52.038;29.256;2023-06-22T05:02:48;3.2;3.2;2.2
74434;PMS7003;62867;52.038;29.256;2023-06-22T05:07:44;3.3;3;1.8
74434;PMS7003;62867;52.038;29.256;2023-06-22T05:11:50;4.4;3.8;2.4
74434;PMS7003;62867;52.038;29.256;2023-06-22T05:17:12;2.8;2.4;2.2
74434;PMS7003;62867;52.038;29.256;2023-06-22T05:22:30;3.2;3;2.2
74434;PMS7003;62867;52.038;29.256;2023-06-22T05:27:30;3.4;3.2;2.4
74434;PMS7003;62867;52.038;29.256;2023-06-22T05:32:18;4;3.4;2.4
74434;PMS7003;62867;52.038;29.256;2023-06-22T05:37:26;4.2;3.8;2.8
74434;PMS7003;62867;52.038;29.256;2023-06-22T05:42:00;3.8;3.8;2.8
74434;PMS7003;62867;52.038;29.256;2023-06-22T05:47:28;4.2;3.6;2.8
74434;PMS7003;62867;52.038;29.256;2023-06-22T05:52:12;3.4;3;2.2
74434;PMS7003;62867;52.038;29.256;2023-06-22T05:57:46;3.4;3.4;2.8
74434;PMS7003;62867;52.038;29.256;2023-06-22T06:02:30;4;3.6;3
74434;PMS7003;62867;52.038;29.256;2023-06-22T06:07:44;4.2;4.2;3
74434;PMS7003;62867;52.038;29.256;2023-06-22T06:11:50;4.8;3.3;3.3
74434;PMS7003;62867;52.038;29.256;2023-06-22T06:17:00;3.4;2.6;2.2
74434;PMS7003;62867;52.038;29.256;2023-06-22T06:22:12;2.8;2.6;2.2
74434;PMS7003;62867;52.038;29.256;2023-06-22T06:26:50;2.6;2.4;2.2
74434;PMS7003;62867;52.038;29.256;2023-06-22T06:32:16;3;3;2.8
74434;PMS7003;62867;52.038;29.256;2023-06-22T06:37:45;2.6;2.4;1.8
74434;PMS7003;62867;52.038;29.256;2023-06-22T06:42:46;2.8;2.8;2.4
74434;PMS7003;62867;52.038;29.256;2023-06-22T06:47:14;2.2;2;1.6
74434;PMS7003;62867;52.038;29.256;2023-06-22T06:52:14;2.8;2.4;2
74434;PMS7003;62867;52.038;29.256;2023-06-22T06:57:44;2.6;2.6;2
74434;PMS7003;62867;52.038;29.256;2023-06-22T07:01:50;2.4;2.2;1.6
74434;PMS7003;62867;52.038;29.256;2023-06-22T07:07:06;2;2;1.8
74434;PMS7003;62867;52.038;29.256;2023-06-22T07:12:32;3;2.8;1.8
74434;PMS7003;62867;52.038;29.256;2023-06-22T07:17:32;2;1.6;1.4
74434;PMS7003;62867;52.038;29.256;2023-06-22T07:22:08;1.6;1.6;1.2
74434;PMS7003;62867;52.038;29.256;2023-06-22T07:26:50;1.8;1.8;1.4
74434;PMS7003;62867;52.038;29.256;2023-06-22T07:32:26;2.8;2.6;2.2
74434;PMS7003;62867;52.038;29.256;2023-06-22T07:37:44;2.4;2;1.8
74434;PMS7003;62867;52.038;29.256;2023-06-22T07:42:44;2;1.6;1
74434;PMS7003;62867;52.038;29.256;2023-06-22T07:47:02;1.8;1.4;1
74434;PMS7003;62867;52.038;29.256;2023-06-22T07:52:42;2.8;2.8;2.4
74434;PMS7003;62867;52.038;29.256;2023-06-22T07:56:50;2.2;2;1.6
74434;PMS7003;62867;52.038;29.256;2023-06-22T08:02:45;2;2;2
74434;PMS7003;62867;52.038;29.256;2023-06-22T08:07:26;1.8;1.8;1.6
74434;PMS7003;62867;52.038;29.256;2023-06-22T08:12:34;1.8;1.8;1.3
74434;PMS7003;62867;52.038;29.256;2023-06-22T08:17:30;2.4;2;1.6
74434;PMS7003;62867;52.038;29.256;2023-06-22T08:22:26;2.4;2.4;2
74434;PMS7003;62867;52.038;29.256;2023-06-22T08:26:51;2.8;2.6;2.4
74434;PMS7003;62867;52.038;29.256;2023-06-22T08:32:00;3;2.6;2
74434;PMS7003;62867;52.038;29.256;2023-06-22T08:37:44;2;1.6;1.2
74434;PMS7003;62867;52.038;29.256;2023-06-22T08:42:32;2.4;2.4;2
74434;PMS7003;62867;52.038;29.256;2023-06-22T08:47:46;2.8;2.2;1.6
74434;PMS7003;62867;52.038;29.256;2023-06-22T08:52:46;2.4;2;1.8
74434;PMS7003;62867;52.038;29.256;2023-06-22T08:57:28;2.4;2;1.8
74434;PMS7003;62867;52.038;29.256;2023-06-22T09:02:10;2.4;2.2;1.8
74434;PMS7003;62867;52.038;29.256;2023-06-22T09:07:00;2.4;2.2;1.6
74434;PMS7003;62867;52.038;29.256;2023-06-22T09:12:48;2.5;1.8;1.3
74434;PMS7003;62867;52.038;29.256;2023-06-22T09:17:02;2.8;2.8;2.2
74434;PMS7003;62867;52.038;29.256;2023-06-22T09:22:06;2.4;1.8;1.4
74434;PMS7003;62867;52.038;29.256;2023-06-22T09:27:44;2.6;2.6;1.8
74434;PMS7003;62867;52.038;29.256;2023-06-22T09:32:44;4.2;4;3
74434;PMS7003;62867;52.038;29.256;2023-06-22T09:36:50;5.4;5.4;3.4
74434;PMS7003;62867;52.038;29.256;2023-06-22T09:41:50;6.2;5;3.4
74434;PMS7003;62867;52.038;29.256;2023-06-22T09:47:30;5.2;3.8;3.2
74434;PMS7003;62867;52.038;29.256;2023-06-22T09:52:30;2.8;2.6;2.4
74434;PMS7003;62867;52.038;29.256;2023-06-22T09:56:50;3.8;3.2;2.8
74434;PMS7003;62867;52.038;29.256;2023-06-22T10:02:04;4.2;3.6;3
74434;PMS7003;62867;52.038;29.256;2023-06-22T10:07:00;6;5.4;4
74434;PMS7003;62867;52.038;29.256;2023-06-22T10:11:50;7.3;6.5;4
74434;PMS7003;62867;52.038;29.256;2023-06-22T10:17:08;7.6;6.4;3.4
74434;PMS7003;62867;52.038;29.256;2023-06-22T10:22:10;7.2;6.8;4.2
74434;PMS7003;62867;52.038;29.256;2023-06-22T10:27:30;6.8;6;3.2
74434;PMS7003;62867;52.038;29.256;2023-06-22T10:32:30;6.4;5.6;3.2
74434;PMS7003;62867;52.038;29.256;2023-06-22T10:37:02;7.4;6.6;3.6
74434;PMS7003;62867;52.038;29.256;2023-06-22T10:41:50;7;6.4;3.2
74434;PMS7003;62867;52.038;29.256;2023-06-22T10:47:02;6.4;6;3
74434;PMS7003;62867;52.038;29.256;2023-06-22T10:51:50;6.2;5;3.4
74434;PMS7003;62867;52.038;29.256;2023-06-22T10:57:18;5.4;4.6;2.8
74434;PMS7003;62867;52.038;29.256;2023-06-22T11:02:32;5.2;5;2.8
74434;PMS7003;62867;52.038;29.256;2023-06-22T11:07:28;6;5.6;3.6
74434;PMS7003;62867;52.038;29.256;2023-06-22T11:12:12;6.2;5;3.4
74434;PMS7003;62867;52.038;29.256;2023-06-22T11:17:14;5.3;5;3.5
74434;PMS7003;62867;52.038;29.256;2023-06-22T11:22:46;6;4.8;3
74434;PMS7003;62867;52.038;29.256;2023-06-22T11:27:12;6.2;5.2;3.2
74434;PMS7003;62867;52.038;29.256;2023-06-22T11:32:14;6.2;5.6;3.4
74434;PMS7003;62867;52.038;29.256;2023-06-22T11:37:32;6.6;6.6;4.4
74434;PMS7003;62867;52.038;29.256;2023-06-22T11:42:14;9.2;8;5.6
74434;PMS7003;62867;52.038;29.256;2023-06-22T11:47:00;9.4;9;4.8
74434;PMS7003;62867;52.038;29.256;2023-06-22T11:52:00;12.2;10.8;5.8
74434;PMS7003;62867;52.038;29.256;2023-06-22T11:57:28;8;7;4
74434;PMS7003;62867;52.038;29.256;2023-06-22T12:02:32;4.2;4;2.4
74434;PMS7003;62867;52.038;29.256;2023-06-22T12:07:44;4.6;4.4;3.4
74434;PMS7003;62867;52.038;29.256;2023-06-22T12:12:04;5.2;4.8;3
74434;PMS7003;62867;52.038;29.256;2023-06-22T12:17:44;4.8;4.5;3.3
74434;PMS7003;62867;52.038;29.256;2023-06-22T12:21:58;8;7.2;3.8
74434;PMS7003;62867;52.038;29.256;2023-06-22T12:27:44;7.8;7.2;4
74434;PMS7003;62867;52.038;29.256;2023-06-22T12:32:26;5.2;4.8;3
74434;PMS7003;62867;52.038;29.256;2023-06-22T12:37:32;4.2;4;2.6
74434;PMS7003;62867;52.038;29.256;2023-06-22T12:42:32;3.2;3.2;2.4
74434;PMS7003;62867;52.038;29.256;2023-06-22T12:47:28;4.6;4.6;3.4
74434;PMS7003;62867;52.038;29.256;2023-06-22T12:51:58;3.4;3.4;2.6
74434;PMS7003;62867;52.038;29.256;2023-06-22T12:57:08;3.2;3;2
74434;PMS7003;62867;52.038;29.256;2023-06-22T13:02:44;3.6;3.4;2.4
74434;PMS7003;62867;52.038;29.256;2023-06-22T13:07:32;5.6;4.8;3.4
74434;PMS7003;62867;52.038;29.256;2023-06-22T13:12:48;4.2;3.8;2.6
74434;PMS7003;62867;52.038;29.256;2023-06-22T13:17:48;7;6;3.3
74434;PMS7003;62867;52.038;29.256;2023-06-22T13:22:30;8.4;7.2;3.4
74434;PMS7003;62867;52.038;29.256;2023-06-22T13:27:10;7;5.6;3.4
74434;PMS7003;62867;52.038;29.256;2023-06-22T13:31:50;6;5.4;3
74434;PMS7003;62867;52.038;29.256;2023-06-22T13:37:48;4.2;3.4;2.2
74434;PMS7003;62867;52.038;29.256;2023-06-22T13:42:32;5;3.2;2.6
74434;PMS7003;62867;52.038;29.256;2023-06-22T13:47:06;2.6;2.6;2.2
74434;PMS7003;62867;52.038;29.256;2023-06-22T13:52:46;3.2;2.6;2
74434;PMS7003;62867;52.038;29.256;2023-06-22T13:57:44;3.6;2.8;2.4
74434;PMS7003;62867;52.038;29.256;2023-06-22T14:01:50;3.6;2.8;2.2
74434;PMS7003;62867;52.038;29.256;2023-06-22T14:07:10;2.4;2.2;2
74434;PMS7003;62867;52.038;29.256;2023-06-22T14:12:28;3;2.4;2
74434;PMS7003;62867;52.038;29.256;2023-06-22T14:17:46;2.8;2;1.8
74434;PMS7003;62867;52.038;29.256;2023-06-22T14:22:06;2.8;2.2;2
74434;PMS7003;62867;52.038;29.256;2023-06-22T14:26:50;2;1.8;1.4
74434;PMS7003;62867;52.038;29.256;2023-06-22T14:32:22;3.4;2.4;2.2
74434;PMS7003;62867;52.038;29.256;2023-06-22T14:37:00;2.4;2.4;2.4
74434;PMS7003;62867;52.038;29.256;2023-06-22T14:42:12;2.4;2.4;2
74434;PMS7003;62867;52.038;29.256;2023-06-22T14:47:46;2;2;1.6
74434;PMS7003;62867;52.038;29.256;2023-06-22T14:52:33;1.4;1.4;1.4
74434;PMS7003;62867;52.038;29.256;2023-06-22T14:57:48;1.8;1.8;1.2
74434;PMS7003;62867;52.038;29.256;2023-06-22T15:02:12;1.6;1.4;1
74434;PMS7003;62867;52.038;29.256;2023-06-22T15:07:14;1.6;1.6;1.4
74434;PMS7003;62867;52.038;29.256;2023-06-22T15:12:00;1.8;1.6;1.6
74434;PMS7003;62867;52.038;29.256;2023-06-22T15:16:50;2;2;1.8
74434;PMS7003;62867;52.038;29.256;2023-06-22T15:21:58;3;2.6;2
74434;PMS7003;62867;52.038;29.256;2023-06-22T15:27:20;1.8;1.8;1.4
74434;PMS7003;62867;52.038;29.256;2023-06-22T15:32:45;1.8;1.4;1.2
74434;PMS7003;62867;52.038;29.256;2023-06-22T15:37:12;2;2;1.4
74434;PMS7003;62867;52.038;29.256;2023-06-22T15:42:04;3;2.8;1.6
74434;PMS7003;62867;52.038;29.256;2023-06-22T15:47:44;2.8;2.6;1.8
74434;PMS7003;62867;52.038;29.256;2023-06-22T15:52:12;2.8;1.8;0.8
74434;PMS7003;62867;52.038;29.256;2023-06-22T15:57:18;2.4;2.4;1.8
74434;PMS7003;62867;52.038;29.256;2023-06-22T16:02:32;2.2;2.2;1.6
74434;PMS7003;62867;52.038;29.256;2023-06-22T16:07:34;3;2.8;2.2
74434;PMS7003;62867;52.038;29.256;2023-06-22T16:12:16;2.2;2.2;1.4
74434;PMS7003;62867;52.038;29.256;2023-06-22T16:16:50;1.2;1.2;1
74434;PMS7003;62867;52.038;29.256;2023-06-22T16:22:26;1.5;1.3;0.5
74434;PMS7003;62867;52.038;29.256;2023-06-22T16:27:20;3.2;2.6;2
74434;PMS7003;62867;52.038;29.256;2023-06-22T16:32:32;2.8;2.8;1.8
74434;PMS7003;62867;52.038;29.256;2023-06-22T16:37:12;2.6;2;1.4
74434;PMS7003;62867;52.038;29.256;2023-06-22T16:42:49;1.8;1.2;0.8
74434;PMS7003;62867;52.038;29.256;2023-06-22T16:46:50;2.6;1.6;1.6
74434;PMS7003;62867;52.038;29.256;2023-06-22T16:52:48;2.8;2;1.4
74434;PMS7003;62867;52.038;29.256;2023-06-22T16:57:28;2.6;2.2;1.6
74434;PMS7003;62867;52.038;29.256;2023-06-22T17:02:32;1.4;1.2;0.8
74434;PMS7003;62867;52.038;29.256;2023-06-22T17:07:33;2;1.2;0.6
74434;PMS7003;62867;52.038;29.256;2023-06-22T17:12:44;0.8;0.8;0.6
74434;PMS7003;62867;52.038;29.256;2023-06-22T17:17:28;0.8;0.8;0.6
74434;PMS7003;62867;52.038;29.256;2023-06-22T17:21:58;1.3;0.8;0.8
74434;PMS7003;62867;52.038;29.256;2023-06-22T17:27:46;1.8;0.8;0.8
74434;PMS7003;62867;52.038;29.256;2023-06-22T17:32:12;2;1.4;1
74434;PMS7003;62867;52.038;29.256;2023-06-22T17:37:47;1.6;1;1
74434;PMS7003;62867;52.038;29.256;2023-06-22T17:42:47;1.2;1;0.6
74434;PMS7003;62867;52.038;29.256;2023-06-22T17:47:15;1.6;1.6;1.2
74434;PMS7003;62867;52.038;29.256;2023-06-22T17:51:50;1.2;1.2;0.6
74434;PMS7003;62867;52.038;29.256;2023-06-22T17:56:50;1.2;1;0.6
74434;PMS7003;62867;52.038;29.256;2023-06-22T18:02:44;1.4;1.2;1
74434;PMS7003;62867;52.038;29.256;2023-06-22T18:07:30;2.2;1.6;1
74434;PMS7003;62867;52.038;29.256;2023-06-22T18:12:18;1.2;1.2;0.6
74434;PMS7003;62867;52.038;29.256;2023-06-22T18:17:47;1.8;1.4;1
74434;PMS7003;62867;52.038;29.256;2023-06-22T18:22:45;1.8;1.8;1.3
74434;PMS7003;62867;52.038;29.256;2023-06-22T18:27:11;1.6;1.6;0.8
74434;PMS7003;62867;52.038;29.256;2023-06-22T18:32:11;1.6;1.4;1.2
74434;PMS7003;62867;52.038;29.256;2023-06-22T18:37:31;3.4;2.6;1.6
74434;PMS7003;62867;52.038;29.256;2023-06-22T18:42:31;2.6;1.8;1.2
74434;PMS7003;62867;52.038;29.256;2023-06-22T18:46:51;1.6;1;1
74434;PMS7003;62867;52.038;29.256;2023-06-22T18:52:31;3.6;3.2;1.8
74434;PMS7003;62867;52.038;29.256;2023-06-22T18:56:51;3.4;3.2;2
74434;PMS7003;62867;52.038;29.256;2023-06-22T19:02:03;3.8;3.4;2
74434;PMS7003;62867;52.038;29.256;2023-06-22T19:07:09;1.6;1.2;1
74434;PMS7003;62867;52.038;29.256;2023-06-22T19:12:43;2.6;2;1.6
74434;PMS7003;62867;52.038;29.256;2023-06-22T19:17:31;1.6;1.6;0.4
74434;PMS7003;62867;52.038;29.256;2023-06-22T19:22:43;2.8;2.5;1.3
74434;PMS7003;62867;52.038;29.256;2023-06-22T19:26:51;3.2;2.6;1.8
74434;PMS7003;62867;52.038;29.256;2023-06-22T19:32:11;1.6;1;0.8
74434;PMS7003;62867;52.038;29.256;2023-06-22T19:37:14;2;2;1.4
74434;PMS7003;62867;52.038;29.256;2023-06-22T19:42:11;0.8;0.8;0.4
74434;PMS7003;62867;52.038;29.256;2023-06-22T19:47:19;1.2;1;0.6
74434;PMS7003;62867;52.038;29.256;2023-06-22T19:52:34;2.2;1.4;1.2
74434;PMS7003;62867;52.038;29.256;2023-06-22T19:57:43;1.2;1.2;0.8
74434;PMS7003;62867;52.038;29.256;2023-06-22T20:02:11;1.2;1.2;0.8
74434;PMS7003;62867;52.038;29.256;2023-06-22T20:07:06;2;1.6;1.6
74434;PMS7003;62867;52.038;29.256;2023-06-22T20:12:46;1.6;1.6;1.2
74434;PMS7003;62867;52.038;29.256;2023-06-22T20:17:25;1.2;1.2;0.8
74434;PMS7003;62867;52.038;29.256;2023-06-22T20:22:31;3;1.8;1.3
74434;PMS7003;62867;52.038;29.256;2023-06-22T20:27:31;1.4;1.4;1.2
74434;PMS7003;62867;52.038;29.256;2023-06-22T20:32:31;1.8;1.4;1
74434;PMS7003;62867;52.038;29.256;2023-06-22T20:37:15;2.2;1.8;1.6
74434;PMS7003;62867;52.038;29.256;2023-06-22T20:41:59;1.8;1.4;0.8
74434;PMS7003;62867;52.038;29.256;2023-06-22T20:47:25;1.2;1.2;1
74434;PMS7003;62867;52.038;29.256;2023-06-22T20:52:13;1.4;1.2;1
74434;PMS7003;62867;52.038;29.256;2023-06-22T20:57:43;1.2;1.2;1
74434;PMS7003;62867;52.038;29.256;2023-06-22T21:01:59;1.8;1.8;1.6
74434;PMS7003;62867;52.038;29.256;2023-06-22T21:07:45;2;1.6;1
74434;PMS7003;62867;52.038;29.256;2023-06-22T21:12:09;1.4;1.4;1.2
74434;PMS7003;62867;52.038;29.256;2023-06-22T21:17:46;2.2;1.8;1.6
74434;PMS7003;62867;52.038;29.256;2023-06-22T21:22:25;2.2;2.2;2
74434;PMS7003;62867;52.038;29.256;2023-06-22T21:27:31;3;3;2.3
74434;PMS7003;62867;52.038;29.256;2023-06-22T21:32:31;2.2;2.2;1.2
74434;PMS7003;62867;52.038;29.256;2023-06-22T21:37:25;2.2;2.2;1.4
74434;PMS7003;62867;52.038;29.256;2023-06-22T21:41:51;1.6;1.6;1.2
74434;PMS7003;62867;52.038;29.256;2023-06-22T21:47:45;2.8;2;1.6
74434;PMS7003;62867;52.038;29.256;2023-06-22T21:52:45;3.2;3;1.6
74434;PMS7003;62867;52.038;29.256;2023-06-22T21:57:11;3.4;2.8;1.6
74434;PMS7003;62867;52.038;29.256;2023-06-22T22:02:43;3;3;1.8
74434;PMS7003;62867;52.038;29.256;2023-06-22T22:07:45;1.8;1.6;1.2
74434;PMS7003;62867;52.038;29.256;2023-06-22T22:12:25;1.2;1.2;1
74434;PMS7003;62867;52.038;29.256;2023-06-22T22:16:51;2.4;2.2;1.6
74434;PMS7003;62867;52.038;29.256;2023-06-22T22:21:59;2.4;2.4;1.8
74434;PMS7003;62867;52.038;29.256;2023-06-22T22:27:43;3;3;1.8
74434;PMS7003;62867;52.038;29.256;2023-06-22T22:32:29;2.6;2.4;1.6
74434;PMS7003;62867;52.038;29.256;2023-06-22T22:37:15;2;1.6;1.4
74434;PMS7003;62867;52.038;29.256;2023-06-22T22:42:33;1.8;1.8;1.4
74434;PMS7003;62867;52.038;29.256;2023-06-22T22:47:45;2.2;1.8;1.2
74434;PMS7003;62867;52.038;29.256;2023-06-22T22:52:03;2.2;2.2;1.2
74434;PMS7003;62867;52.038;29.256;2023-06-22T22:56:59;2.8;2.2;1.4
74434;PMS7003;62867;52.038;29.256;2023-06-22T23:02:31;1.2;1.2;0.6
74434;PMS7003;62867;52.038;29.256;2023-06-22T23:07:45;1.8;1.4;1.2
74434;PMS7003;62867;52.038;29.256;2023-06-22T23:12:15;1.2;1.2;1.2
74434;PMS7003;62867;52.038;29.256;2023-06-22T23:16:51;1.8;1.4;1
74434;PMS7003;62867;52.038;29.256;2023-06-22T23:21:51;2;2;1.8
74434;PMS7003;62867;52.038;29.256;2023-06-22T23:27:29;2;1.8;1
74434;PMS7003;62867;52.038;29.256;2023-06-22T23:32:25;2.2;2;1.2
74434;PMS7003;62867;52.038;29.256;2023-06-22T23:37:43;2;2;1.6
74434;PMS7003;62867;52.038;29.256;2023-06-22T23:42:01;2;2;1.6
74434;PMS7003;62867;52.038;29.256;2023-06-22T23:47:45;2.2;2;1.6
74434;PMS7003;62867;52.038;29.256;2023-06-22T23:51:59;2.4;1.8;1.6
74434;PMS7003;62867;52.038;29.256;2023-06-22T23:57:03;2.4;2.4;1.4
